createdAt,value
2022-10-27T00:01:37.358Z,96.05
2022-10-27T00:04:07.414Z,96.12
2022-10-27T00:06:36.178Z,96.10
2022-10-27T00:09:05.395Z,95.96
2022-10-27T00:11:34.093Z,96.04
2022-10-27T00:14:02.643Z,96.21
2022-10-27T00:16:31.676Z,96.44
2022-10-27T00:19:00.704Z,96.43
2022-10-27T00:21:30.617Z,96.41
2022-10-27T00:23:59.236Z,96.40
2022-10-27T00:26:27.890Z,96.47
2022-10-27T00:28:56.496Z,96.40
2022-10-27T00:31:25.454Z,96.34
2022-10-27T00:33:54.115Z,96.60
2022-10-27T00:36:24.516Z,96.40
2022-10-27T00:38:57.284Z,96.47
2022-10-27T00:41:29.804Z,96.60
2022-10-27T00:43:59.136Z,96.71
2022-10-27T00:46:35.840Z,96.58
2022-10-27T00:49:08.525Z,96.65
2022-10-27T00:51:40.356Z,96.52
2022-10-27T00:54:11.405Z,96.77
2022-10-27T00:56:41.294Z,96.45
2022-10-27T00:59:10.224Z,96.43
2022-10-27T01:01:39.789Z,96.43
2022-10-27T01:04:08.315Z,96.50
2022-10-27T01:06:37.284Z,96.30
2022-10-27T01:09:07.495Z,96.52
2022-10-27T01:11:37.463Z,96.42
2022-10-27T01:14:06.515Z,96.21
2022-10-27T01:16:44.317Z,96.14
2022-10-27T01:19:35.916Z,96.10
2022-10-27T01:22:15.165Z,95.99
2022-10-27T01:24:57.198Z,96.21
2022-10-27T01:27:51.522Z,96.03
2022-10-27T01:30:22.397Z,95.86
2022-10-27T01:33:00.676Z,95.65
2022-10-27T01:35:37.155Z,95.96
2022-10-27T01:38:17.844Z,95.84
2022-10-27T01:40:51.633Z,95.70
2022-10-27T01:43:26.269Z,95.80
2022-10-27T01:45:57.515Z,95.70
2022-10-27T01:48:27.916Z,95.90
2022-10-27T01:51:01.673Z,95.87
2022-10-27T01:53:35.007Z,95.89
2022-10-27T01:56:18.331Z,95.78
2022-10-27T01:59:04.548Z,95.33
2022-10-27T02:01:45.654Z,95.55
2022-10-27T02:04:23.824Z,95.50
2022-10-27T02:06:59.064Z,95.42
2022-10-27T02:09:35.348Z,95.26
2022-10-27T02:12:09.654Z,95.35
2022-10-27T02:14:39.059Z,95.57
2022-10-27T02:17:09.737Z,95.17
2022-10-27T02:19:42.267Z,95.38
2022-10-27T02:22:13.156Z,95.30
2022-10-27T02:24:41.805Z,95.29
2022-10-27T02:27:14.997Z,95.04
2022-10-27T02:29:46.697Z,95.22
2022-10-27T02:32:19.465Z,95.24
2022-10-27T02:34:52.177Z,95.32
2022-10-27T02:37:23.156Z,95.16
2022-10-27T02:39:51.835Z,95.03
2022-10-27T02:42:20.403Z,95.40
2022-10-27T02:44:48.906Z,95.37
2022-10-27T02:47:17.418Z,95.08
2022-10-27T02:49:45.927Z,95.17
2022-10-27T02:52:16.529Z,95.18
2022-10-27T02:54:48.499Z,95.38
2022-10-27T02:57:17.688Z,95.32
2022-10-27T02:59:49.664Z,95.00
2022-10-27T03:02:23.646Z,95.47
2022-10-27T03:04:52.985Z,95.46
2022-10-27T03:07:22.877Z,95.12
2022-10-27T03:09:51.467Z,95.19
2022-10-27T03:12:20.004Z,95.25
2022-10-27T03:14:48.973Z,95.15
2022-10-27T03:17:17.480Z,95.22
2022-10-27T03:19:46.113Z,95.30
2022-10-27T03:22:14.645Z,95.57
2022-10-27T03:24:44.807Z,95.54
2022-10-27T03:27:13.206Z,95.68
2022-10-27T03:29:41.753Z,95.32
2022-10-27T03:32:10.497Z,95.61
2022-10-27T03:34:39.036Z,95.64
2022-10-27T03:37:07.643Z,95.80
2022-10-27T03:39:36.200Z,95.79
2022-10-27T03:42:06.688Z,95.88
2022-10-27T03:44:35.256Z,95.83
2022-10-27T03:47:03.896Z,95.68
2022-10-27T03:49:32.538Z,95.72
2022-10-27T03:52:01.057Z,95.64
2022-10-27T03:54:31.597Z,96.11
2022-10-27T03:57:00.336Z,95.85
2022-10-27T03:59:30.218Z,96.13
2022-10-27T04:02:01.079Z,96.06
2022-10-27T04:04:32.218Z,96.01
2022-10-27T04:07:00.774Z,96.24
2022-10-27T04:09:29.694Z,96.14
2022-10-27T04:11:58.216Z,96.35
2022-10-27T04:14:26.805Z,96.17
2022-10-27T04:16:56.715Z,96.42
2022-10-27T04:19:25.365Z,96.35
2022-10-27T04:21:53.886Z,96.15
2022-10-27T04:24:22.748Z,96.35
2022-10-27T04:26:51.245Z,96.64
2022-10-27T04:29:19.723Z,96.31
2022-10-27T04:31:48.248Z,96.72
2022-10-27T04:34:18.410Z,96.62
2022-10-27T04:36:47.056Z,96.72
2022-10-27T04:39:15.567Z,96.69
2022-10-27T04:41:44.396Z,96.49
2022-10-27T04:44:12.926Z,96.90
2022-10-27T04:46:41.595Z,96.75
2022-10-27T04:49:10.181Z,96.91
2022-10-27T04:51:41.005Z,96.71
2022-10-27T04:54:09.747Z,96.76
2022-10-27T04:56:38.344Z,96.97
2022-10-27T04:59:07.123Z,96.90
2022-10-27T05:01:35.659Z,96.84
2022-10-27T05:04:04.305Z,96.48
2022-10-27T05:06:32.839Z,97.09
2022-10-27T05:09:02.838Z,97.09
2022-10-27T05:11:31.815Z,96.79
2022-10-27T05:14:00.346Z,97.23
2022-10-27T05:16:29.718Z,96.84
2022-10-27T05:18:58.291Z,97.02
2022-10-27T05:21:26.847Z,97.22
2022-10-27T05:23:55.316Z,97.04
2022-10-27T05:26:25.264Z,97.11
2022-10-27T05:28:53.926Z,96.98
2022-10-27T05:31:22.321Z,96.90
2022-10-27T05:33:50.934Z,97.19
2022-10-27T05:36:19.715Z,97.03
2022-10-27T05:38:48.587Z,96.94
2022-10-27T05:41:19.456Z,97.23
2022-10-27T05:43:49.528Z,97.11
2022-10-27T05:46:18.123Z,97.04
2022-10-27T05:48:46.603Z,97.36
2022-10-27T05:51:16.819Z,97.20
2022-10-27T05:53:51.406Z,97.49
2022-10-27T05:56:20.409Z,97.10
2022-10-27T05:58:50.354Z,97.31
2022-10-27T06:01:19.062Z,97.57
2022-10-27T06:03:47.648Z,97.52
2022-10-27T06:06:16.542Z,97.48
2022-10-27T06:08:45.056Z,97.55
2022-10-27T06:11:13.684Z,97.66
2022-10-27T06:13:42.199Z,97.60
2022-10-27T06:16:13.149Z,97.52
2022-10-27T06:18:42.353Z,97.74
2022-10-27T06:21:10.882Z,97.88
2022-10-27T06:23:41.783Z,97.71
2022-10-27T06:26:12.016Z,97.62
2022-10-27T06:28:40.725Z,97.66
2022-10-27T06:31:09.296Z,97.58
2022-10-27T06:33:39.681Z,97.84
2022-10-27T06:36:08.484Z,97.57
2022-10-27T06:38:38.641Z,97.78
2022-10-27T06:41:09.533Z,97.77
2022-10-27T06:43:37.896Z,97.80
2022-10-27T06:46:06.797Z,97.75
2022-10-27T06:48:35.517Z,97.86
2022-10-27T06:51:05.548Z,97.84
2022-10-27T06:53:34.045Z,98.12
2022-10-27T06:56:02.686Z,97.82
2022-10-27T06:58:31.033Z,97.93
2022-10-27T07:01:01.677Z,97.82
2022-10-27T07:03:31.983Z,97.80
2022-10-27T07:06:00.504Z,97.83
2022-10-27T07:08:30.363Z,98.03
2022-10-27T07:10:59.079Z,98.14
2022-10-27T07:13:27.545Z,97.82
2022-10-27T07:15:56.614Z,98.07
2022-10-27T07:18:25.148Z,98.15
2022-10-27T07:20:54.017Z,98.00
2022-10-27T07:23:22.475Z,97.93
2022-10-27T07:25:52.363Z,97.78
2022-10-27T07:28:20.845Z,97.74
2022-10-27T07:30:49.475Z,98.26
2022-10-27T07:33:18.537Z,97.70
2022-10-27T07:35:49.878Z,97.61
2022-10-27T07:38:18.569Z,97.83
2022-10-27T07:40:47.549Z,97.57
2022-10-27T07:43:17.608Z,97.55
2022-10-27T07:45:46.143Z,97.94
2022-10-27T07:48:16.583Z,97.54
2022-10-27T07:50:46.293Z,97.95
2022-10-27T07:53:16.480Z,97.47
2022-10-27T07:55:45.248Z,97.70
2022-10-27T07:58:15.778Z,97.70
2022-10-27T08:00:47.646Z,97.70
2022-10-27T08:03:17.848Z,97.69
2022-10-27T08:05:46.427Z,97.32
2022-10-27T08:08:15.595Z,97.24
2022-10-27T08:10:45.913Z,97.47
2022-10-27T08:13:14.626Z,97.09
2022-10-27T08:15:43.643Z,96.94
2022-10-27T08:18:14.058Z,96.92
2022-10-27T08:20:44.416Z,96.74
2022-10-27T08:23:15.228Z,96.67
2022-10-27T08:25:44.629Z,96.99
2022-10-27T08:28:14.319Z,96.75
2022-10-27T08:30:50.669Z,96.20
2022-10-27T08:33:23.310Z,96.46
2022-10-27T08:35:52.088Z,96.22
2022-10-27T08:38:21.008Z,96.03
2022-10-27T08:41:11.809Z,96.09
2022-10-27T08:43:52.409Z,95.52
2022-10-27T08:46:27.617Z,95.45
2022-10-27T08:51:45.113Z,95.29
2022-10-27T08:54:13.745Z,95.02
2022-10-27T08:56:43.116Z,94.63
2022-10-27T08:59:17.208Z,94.44
2022-10-27T09:01:56.281Z,94.00
2022-10-27T09:04:34.489Z,93.72
2022-10-27T09:07:16.130Z,93.63
2022-10-27T09:09:53.756Z,93.64
2022-10-27T09:12:44.121Z,93.00
2022-10-27T09:15:35.495Z,92.65
2022-10-27T09:18:10.495Z,92.91
2022-10-27T09:20:45.946Z,92.48
2022-10-27T09:23:18.136Z,92.47
2022-10-27T09:28:24.136Z,91.89
2022-10-27T09:30:54.509Z,91.71
2022-10-27T09:33:29.720Z,91.76
2022-10-27T09:36:00.975Z,91.03
2022-10-27T09:38:29.606Z,90.66
2022-10-27T09:40:58.479Z,90.19
2022-10-27T09:43:27.167Z,89.50
2022-10-27T09:46:02.410Z,89.27
2022-10-27T09:48:32.697Z,89.05
2022-10-27T09:51:09.751Z,88.49
2022-10-27T09:53:41.618Z,88.12
2022-10-27T09:56:14.133Z,87.59
2022-10-27T09:58:51.145Z,87.34
2022-10-27T10:01:19.930Z,87.24
2022-10-27T10:04:03.748Z,87.23
2022-10-27T10:06:39.028Z,87.07
2022-10-27T10:09:22.825Z,87.01
2022-10-27T10:11:51.891Z,86.38
2022-10-27T10:14:25.909Z,86.01
2022-10-27T10:16:55.831Z,86.32
2022-10-27T10:19:25.916Z,85.96
2022-10-27T10:21:58.644Z,86.06
2022-10-27T10:24:30.810Z,85.79
2022-10-27T10:27:02.188Z,85.79
2022-10-27T10:29:35.201Z,85.56
2022-10-27T10:32:11.131Z,85.59
2022-10-27T10:34:39.786Z,85.20
2022-10-27T10:37:36.767Z,85.19
2022-10-27T10:40:36.550Z,85.13
2022-10-27T10:43:16.319Z,84.75
2022-10-27T10:45:50.851Z,84.44
2022-10-27T10:48:32.409Z,84.01
2022-10-27T10:51:01.580Z,84.45
2022-10-27T10:53:34.912Z,84.51
2022-10-27T10:56:08.090Z,84.27
2022-10-27T10:58:37.818Z,84.53
2022-10-27T11:01:08.743Z,83.99
2022-10-27T11:03:44.852Z,84.11
2022-10-27T11:06:20.193Z,84.12
2022-10-27T11:09:00.891Z,83.57
2022-10-27T11:11:34.153Z,83.58
2022-10-27T11:14:07.915Z,83.86
2022-10-27T11:16:39.210Z,83.54
2022-10-27T11:19:17.522Z,83.43
2022-10-27T11:24:33.099Z,82.98
2022-10-27T11:27:05.595Z,82.74
2022-10-27T11:29:49.259Z,83.08
2022-10-27T11:32:24.115Z,82.38
2022-10-27T11:35:06.236Z,82.04
2022-10-27T11:37:40.798Z,81.88
2022-10-27T11:40:17.887Z,81.20
2022-10-27T11:42:56.482Z,80.91
2022-10-27T11:45:31.180Z,80.07
2022-10-27T11:48:09.148Z,79.49
2022-10-27T11:50:44.020Z,79.25
2022-10-27T11:53:13.725Z,78.66
2022-10-27T11:55:55.786Z,78.03
2022-10-27T11:58:33.901Z,77.46
2022-10-27T12:01:16.744Z,76.90
2022-10-27T12:04:01.452Z,76.75
2022-10-27T12:06:34.632Z,76.45
2022-10-27T12:09:16.206Z,75.80
2022-10-27T12:11:58.986Z,75.17
2022-10-27T12:14:33.034Z,74.78
2022-10-27T12:17:09.888Z,74.77
2022-10-27T12:19:41.642Z,74.59
2022-10-27T12:22:16.345Z,74.59
2022-10-27T12:24:52.862Z,74.48
2022-10-27T12:27:25.609Z,74.14
2022-10-27T12:30:00.956Z,73.58
2022-10-27T12:32:35.966Z,73.22
2022-10-27T12:35:10.076Z,73.08
2022-10-27T12:37:50.371Z,73.04
2022-10-27T12:40:29.688Z,73.25
2022-10-27T12:43:09.310Z,73.67
2022-10-27T12:45:47.736Z,73.66
2022-10-27T12:48:28.597Z,73.68
2022-10-27T12:51:08.826Z,73.37
2022-10-27T12:53:46.735Z,73.24
2022-10-27T12:56:29.496Z,73.13
2022-10-27T12:59:11.586Z,72.93
2022-10-27T13:01:47.681Z,72.78
2022-10-27T13:04:44.546Z,72.98
2022-10-27T13:07:41.308Z,73.30
2022-10-27T13:10:40.624Z,73.33
2022-10-27T13:13:35.947Z,73.42
2022-10-27T13:16:19.714Z,73.58
2022-10-27T13:19:16.154Z,73.71
2022-10-27T13:21:49.774Z,74.29
2022-10-27T13:24:28.995Z,74.38
2022-10-27T13:27:05.568Z,74.33
2022-10-27T13:29:44.015Z,74.93
2022-10-27T13:32:53.608Z,75.04
2022-10-27T13:35:34.643Z,75.42
2022-10-27T13:38:24.115Z,75.45
2022-10-27T13:40:53.655Z,75.84
2022-10-27T13:43:45.035Z,76.15
2022-10-27T13:46:13.479Z,76.31
2022-10-27T13:48:50.570Z,76.67
2022-10-27T13:51:49.120Z,76.96
2022-10-27T13:54:52.681Z,77.62
2022-10-27T13:57:46.043Z,77.77
2022-10-27T14:00:17.757Z,78.08
2022-10-27T14:03:17.385Z,78.52
2022-10-27T14:05:49.456Z,78.81
2022-10-27T14:08:21.918Z,79.56
2022-10-27T14:10:51.127Z,79.65
2022-10-27T14:13:23.085Z,79.95
2022-10-27T14:16:01.079Z,80.49
2022-10-27T14:18:32.256Z,81.26
2022-10-27T14:21:15.650Z,81.45
2022-10-27T14:23:44.758Z,81.97
2022-10-27T14:26:23.973Z,82.27
2022-10-27T14:28:52.697Z,82.58
2022-10-27T14:31:24.299Z,82.59
2022-10-27T14:33:54.305Z,82.87
2022-10-27T14:36:31.260Z,83.39
2022-10-27T14:39:30.294Z,83.40
2022-10-27T14:42:06.039Z,83.63
2022-10-27T14:44:35.866Z,83.77
2022-10-27T14:47:07.878Z,83.91
2022-10-27T14:49:40.730Z,84.30
2022-10-27T14:52:21.315Z,84.55
2022-10-27T14:54:55.180Z,84.81
2022-10-27T14:57:36.402Z,84.69
2022-10-27T15:00:22.623Z,84.95
2022-10-27T15:02:52.478Z,85.19
2022-10-27T15:05:25.698Z,85.32
2022-10-27T15:07:59.169Z,85.11
2022-10-27T15:10:35.747Z,85.58
2022-10-27T15:13:06.171Z,85.79
2022-10-27T15:15:42.495Z,85.30
2022-10-27T15:18:24.387Z,85.43
2022-10-27T15:20:54.096Z,85.74
2022-10-27T15:23:24.126Z,85.65
2022-10-27T15:25:58.379Z,85.62
2022-10-27T15:28:32.384Z,86.34
2022-10-27T15:31:03.176Z,85.97
2022-10-27T15:33:35.737Z,86.22
2022-10-27T15:36:21.337Z,86.53
2022-10-27T15:38:52.825Z,86.47
2022-10-27T15:41:24.293Z,86.77
2022-10-27T15:43:55.103Z,86.51
2022-10-27T15:46:32.693Z,87.02
2022-10-27T15:49:17.836Z,86.29
2022-10-27T15:51:50.955Z,86.19
2022-10-27T15:54:30.757Z,86.33
2022-10-27T15:56:59.388Z,86.23
2022-10-27T15:59:29.355Z,86.14
2022-10-27T16:02:03.884Z,86.44
2022-10-27T16:04:36.085Z,86.25
2022-10-27T16:07:26.599Z,86.38
2022-10-27T16:09:56.554Z,86.09
2022-10-27T16:12:28.765Z,85.64
2022-10-27T16:15:00.244Z,86.36
2022-10-27T16:17:36.276Z,85.85
2022-10-27T16:20:08.012Z,86.06
2022-10-27T16:22:37.103Z,86.39
2022-10-27T16:25:07.975Z,86.39
2022-10-27T16:27:37.066Z,86.07
2022-10-27T16:30:08.099Z,86.38
2022-10-27T16:32:37.753Z,86.25
2022-10-27T16:35:06.796Z,86.62
2022-10-27T16:37:36.618Z,86.74
2022-10-27T16:40:08.574Z,86.58
2022-10-27T16:42:39.570Z,87.28
2022-10-27T16:45:13.416Z,87.61
2022-10-27T16:47:42.067Z,87.49
2022-10-27T16:50:11.226Z,87.77
2022-10-27T16:52:40.057Z,87.83
2022-10-27T16:55:12.956Z,88.56
2022-10-27T16:57:45.815Z,88.50
2022-10-27T17:00:18.215Z,88.91
2022-10-27T17:02:46.757Z,89.20
2022-10-27T17:05:15.365Z,89.68
2022-10-27T17:07:46.946Z,89.68
2022-10-27T17:10:17.323Z,90.00
2022-10-27T17:12:46.266Z,90.21
2022-10-27T17:15:15.155Z,90.43
2022-10-27T17:17:44.906Z,90.35
2022-10-27T17:20:13.503Z,90.57
2022-10-27T17:22:45.095Z,91.10
2022-10-27T17:25:14.123Z,91.37
2022-10-27T17:27:44.035Z,91.08
2022-10-27T17:30:13.525Z,91.33
2022-10-27T17:32:42.068Z,91.99
2022-10-27T17:35:11.026Z,91.82
2022-10-27T17:37:39.514Z,92.27
2022-10-27T17:40:09.144Z,92.20
2022-10-27T17:42:37.498Z,92.21
2022-10-27T17:45:08.507Z,92.20
2022-10-27T17:47:37.067Z,92.51
2022-10-27T17:50:08.972Z,92.62
2022-10-27T17:52:38.324Z,92.68
2022-10-27T17:55:08.853Z,92.88
2022-10-27T17:57:37.486Z,92.63
2022-10-27T18:00:08.725Z,93.18
2022-10-27T18:02:41.055Z,93.46
2022-10-27T18:05:09.803Z,93.22
2022-10-27T18:07:38.303Z,93.22
2022-10-27T18:10:07.963Z,93.26
2022-10-27T18:12:36.037Z,93.35
2022-10-27T18:15:24.121Z,93.39
2022-10-27T18:17:55.664Z,93.39
2022-10-27T18:20:24.248Z,93.67
2022-10-27T18:22:53.363Z,93.52
2022-10-27T18:25:22.415Z,93.54
2022-10-27T18:27:50.979Z,93.95
2022-10-27T18:30:19.673Z,93.72
2022-10-27T18:32:48.211Z,93.75
2022-10-27T18:35:18.353Z,93.93
2022-10-27T18:37:47.033Z,93.77
2022-10-27T18:40:15.719Z,93.67
2022-10-27T18:42:44.369Z,94.05
2022-10-27T18:45:12.898Z,93.97
2022-10-27T18:47:41.364Z,94.40
2022-10-27T18:50:10.740Z,93.99
2022-10-27T18:52:40.817Z,93.95
2022-10-27T18:55:10.009Z,94.41
2022-10-27T18:57:38.558Z,93.87
2022-10-27T19:00:08.580Z,94.06
2022-10-27T19:02:37.213Z,94.48
2022-10-27T19:05:08.537Z,94.62
2022-10-27T19:07:37.250Z,94.37
2022-10-27T19:10:08.405Z,94.19
2022-10-27T19:12:37.169Z,94.19
2022-10-27T19:15:06.271Z,94.11
2022-10-27T19:17:34.875Z,94.80
2022-10-27T19:20:03.696Z,94.12
2022-10-27T19:22:34.177Z,94.58
2022-10-27T19:25:03.634Z,94.40
2022-10-27T19:27:33.606Z,94.05
2022-10-27T19:30:02.209Z,94.23
2022-10-27T19:32:30.915Z,93.90
2022-10-27T19:34:59.865Z,94.47
2022-10-27T19:37:28.423Z,94.09
2022-10-27T19:39:57.069Z,94.36
2022-10-27T19:42:25.800Z,94.20
2022-10-27T19:44:55.836Z,93.98
2022-10-27T19:49:53.797Z,94.81
2022-10-27T19:52:22.615Z,94.51
2022-10-27T19:54:51.256Z,94.42
2022-10-27T19:57:19.841Z,94.38
2022-10-27T19:59:48.518Z,94.64
2022-10-27T20:02:18.468Z,94.59
2022-10-27T20:04:47.498Z,94.88
2022-10-27T20:07:16.047Z,94.47
2022-10-27T20:09:44.678Z,94.47
2022-10-27T20:12:13.372Z,94.52
2022-10-27T20:14:41.968Z,94.70
2022-10-27T20:17:10.458Z,94.65
2022-10-27T20:19:40.457Z,94.44
2022-10-27T20:22:09.104Z,94.79
2022-10-27T20:24:37.656Z,94.49
2022-10-27T20:27:06.367Z,94.67
2022-10-27T20:29:35.799Z,95.04
2022-10-27T20:32:05.068Z,94.99
2022-10-27T20:34:38.639Z,95.20
2022-10-27T20:37:09.617Z,94.88
2022-10-27T20:39:38.250Z,95.13
2022-10-27T20:42:07.114Z,94.84
2022-10-27T20:44:35.537Z,95.35
2022-10-27T20:47:05.080Z,94.98
2022-10-27T20:49:33.366Z,95.54
2022-10-27T20:52:02.007Z,95.27
2022-10-27T20:54:32.139Z,95.55
2022-10-27T20:57:00.817Z,95.07
2022-10-27T20:59:29.352Z,95.52
2022-10-27T21:01:59.157Z,95.21
2022-10-27T21:04:27.808Z,95.55
2022-10-27T21:06:57.521Z,95.18
2022-10-27T21:09:25.836Z,95.77
2022-10-27T21:11:55.864Z,95.65
2022-10-27T21:14:24.437Z,95.51
2022-10-27T21:16:53.156Z,95.83
2022-10-27T21:19:21.718Z,96.07
2022-10-27T21:21:50.345Z,95.83
2022-10-27T21:24:19.107Z,96.06
2022-10-27T21:26:47.718Z,96.17
2022-10-27T21:29:17.626Z,96.21
2022-10-27T21:31:46.890Z,96.09
2022-10-27T21:34:16.007Z,96.49
2022-10-27T21:36:44.789Z,96.25
2022-10-27T21:39:15.115Z,96.36
2022-10-27T21:41:43.725Z,96.50
2022-10-27T21:44:12.249Z,96.54
2022-10-27T21:46:42.665Z,96.27
2022-10-27T21:49:12.423Z,96.64
2022-10-27T21:51:41.169Z,96.64
2022-10-27T21:54:10.923Z,96.94
2022-10-27T21:56:42.696Z,96.68
2022-10-27T21:59:11.873Z,96.93
2022-10-27T22:01:40.647Z,96.58
2022-10-27T22:04:10.905Z,96.78
2022-10-27T22:06:39.606Z,96.56
2022-10-27T22:09:08.206Z,96.30
2022-10-27T22:11:38.104Z,96.77
2022-10-27T22:14:06.723Z,96.76
2022-10-27T22:16:35.971Z,96.55
2022-10-27T22:19:06.905Z,96.67
2022-10-27T22:21:39.581Z,96.38
2022-10-27T22:24:09.204Z,96.93
2022-10-27T22:26:41.045Z,96.68
2022-10-27T22:29:09.889Z,96.48
2022-10-27T22:31:38.461Z,96.34
2022-10-27T22:34:07.088Z,96.39
2022-10-27T22:36:36.938Z,96.78
2022-10-27T22:39:06.656Z,96.83
2022-10-27T22:41:35.347Z,97.04
2022-10-27T22:44:04.178Z,97.02
2022-10-27T22:46:34.197Z,96.92
2022-10-27T22:49:03.389Z,97.04
2022-10-27T22:51:31.989Z,96.57
2022-10-27T22:54:02.787Z,96.71
2022-10-27T22:56:33.154Z,96.91
2022-10-27T22:59:03.810Z,96.79
2022-10-27T23:01:34.967Z,97.27
2022-10-27T23:04:05.557Z,96.91
2022-10-27T23:06:36.955Z,96.95
2022-10-27T23:09:12.966Z,96.70
2022-10-27T23:11:41.695Z,97.00
2022-10-27T23:14:12.107Z,97.04
2022-10-27T23:16:41.159Z,97.07
2022-10-27T23:19:10.203Z,96.79
2022-10-27T23:21:38.739Z,96.90
2022-10-27T23:24:09.508Z,97.13
2022-10-27T23:26:40.137Z,97.02
2022-10-27T23:29:12.055Z,96.90
2022-10-27T23:31:41.108Z,96.86
2022-10-27T23:34:09.647Z,96.92
2022-10-27T23:36:39.478Z,96.55
2022-10-27T23:39:09.517Z,96.80
2022-10-27T23:41:37.969Z,96.83
2022-10-27T23:44:06.828Z,96.39
2022-10-27T23:46:35.751Z,96.63
2022-10-27T23:49:04.311Z,96.64
2022-10-27T23:51:33.164Z,96.44
2022-10-27T23:54:01.818Z,96.90
2022-10-27T23:56:32.133Z,96.63
2022-10-27T23:59:02.195Z,96.41
